createdAt,value
2018-05-12T00:00:59.099Z,76.9
2018-05-12T00:05:59.167Z,77.8
2018-05-12T00:10:59.304Z,78.5
2018-05-12T00:15:59.075Z,79.4
2018-05-12T00:20:59.110Z,79.9
2018-05-12T00:26:11.751Z,79.8
2018-05-12T00:31:11.274Z,79.2
2018-05-12T00:36:11.043Z,79.8
2018-05-12T00:41:11.204Z,79.6
2018-05-12T00:46:11.040Z,79.8
2018-05-12T00:51:11.027Z,80.4
2018-05-12T00:56:11.036Z,81
2018-05-12T01:01:13.422Z,80.2
2018-05-12T01:06:13.308Z,81.3
2018-05-12T01:11:25.345Z,80.7
2018-05-12T01:16:25.226Z,79.8
2018-05-12T01:21:25.053Z,81.2
2018-05-12T01:26:25.214Z,81.2
2018-05-12T01:31:25.071Z,81.5
2018-05-12T01:36:25.075Z,82.8
2018-05-12T01:41:25.176Z,82.1
2018-05-12T01:46:26.007Z,81.5
2018-05-12T01:51:25.685Z,83.7
2018-05-12T01:56:38.241Z,85.7
2018-05-12T02:01:38.002Z,84.2
2018-05-12T02:06:37.969Z,84.2
2018-05-12T02:11:38.106Z,84.1
2018-05-12T02:16:37.991Z,83.2
2018-05-12T02:21:38.193Z,86.9
2018-05-12T02:26:38.126Z,85.8
2018-05-12T02:31:37.995Z,84.9
2018-05-12T02:36:37.987Z,84.9
2018-05-12T02:41:50.050Z,84
2018-05-12T02:46:49.779Z,83.2
2018-05-12T02:51:49.770Z,83.1
2018-05-12T02:56:49.784Z,84.1
2018-05-12T03:01:49.909Z,84.9
2018-05-12T03:06:49.970Z,84.1
2018-05-12T03:11:49.801Z,84.3
2018-05-12T03:16:49.799Z,85.6
2018-05-12T03:21:49.796Z,84.2
2018-05-12T03:27:01.756Z,84.7
2018-05-12T03:32:01.425Z,86.5
2018-05-12T03:37:01.623Z,86.3
2018-05-12T03:42:01.664Z,84.5
2018-05-12T03:47:01.512Z,84.4
2018-05-12T03:52:01.634Z,85.2
2018-05-12T03:57:01.484Z,86
2018-05-12T04:02:01.606Z,85.7
2018-05-12T04:07:01.629Z,84.4
2018-05-12T04:12:14.361Z,86.7
2018-05-12T04:17:14.313Z,86
2018-05-12T04:22:14.086Z,85.4
2018-05-12T04:27:14.257Z,84
2018-05-12T04:32:14.078Z,83.7
2018-05-12T04:37:14.069Z,82.7
2018-05-12T04:42:14.125Z,82.7
2018-05-12T04:47:16.058Z,81.6
2018-05-12T04:52:15.788Z,82.4
2018-05-12T04:57:26.107Z,82.4
2018-05-12T05:02:25.838Z,81.7
2018-05-12T05:07:25.999Z,81.3
2018-05-12T05:12:25.836Z,80.8
2018-05-12T05:17:26.085Z,79.5
2018-05-12T05:22:25.843Z,79.3
2018-05-12T05:27:26.034Z,78.4
2018-05-12T05:32:25.901Z,76.6
2018-05-12T05:37:25.878Z,75.5
2018-05-12T05:42:38.136Z,76.1
2018-05-12T05:47:37.787Z,74.5
2018-05-12T05:52:37.883Z,74.4
2018-05-12T05:57:37.971Z,73.2
2018-05-12T06:02:37.876Z,74.1
2018-05-12T06:07:37.872Z,70.6
2018-05-12T06:12:38.020Z,70.5
2018-05-12T06:17:37.951Z,70.1
2018-05-12T06:22:38.071Z,67.4
2018-05-12T06:27:50.267Z,67.8
2018-05-12T06:32:50.035Z,67.3
2018-05-12T06:37:49.821Z,66.5
2018-05-12T06:42:49.829Z,64.9
2018-05-12T06:47:49.815Z,65.2
2018-05-12T06:52:49.970Z,65
2018-05-12T06:57:49.807Z,64.3
2018-05-12T07:02:51.321Z,64.5
2018-05-12T07:07:51.120Z,63.7
2018-05-12T07:13:03.062Z,62.2
2018-05-12T07:18:02.786Z,62.2
2018-05-12T07:23:02.991Z,62.7
2018-05-12T07:28:02.988Z,60.3
2018-05-12T07:33:02.882Z,61.3
2018-05-12T07:38:02.794Z,60.6
2018-05-12T07:43:02.798Z,60.3
2018-05-12T07:48:05.663Z,61.4
2018-05-12T07:53:05.509Z,59.3
2018-05-12T07:58:18.061Z,59.2
2018-05-12T08:03:17.723Z,58.6
2018-05-12T08:08:17.940Z,59.6
2018-05-12T08:13:17.913Z,58.3
2018-05-12T08:18:17.942Z,58.4
2018-05-12T08:23:17.811Z,58.9
2018-05-12T08:28:17.806Z,58
2018-05-12T08:33:21.184Z,55.8
2018-05-12T08:38:20.914Z,54.9
2018-05-12T08:43:31.484Z,55.4
2018-05-12T08:48:31.215Z,53.4
2018-05-12T08:53:31.205Z,54.5
2018-05-12T08:58:31.203Z,54.6
2018-05-12T09:03:31.393Z,54.3
2018-05-12T09:08:31.295Z,55.2
2018-05-12T09:13:31.351Z,52.7
2018-05-12T09:18:33.577Z,53.4
2018-05-12T09:23:33.311Z,52.6
2018-05-12T09:28:46.565Z,52.2
2018-05-12T09:33:45.861Z,51
2018-05-12T09:38:45.864Z,50.1
2018-05-12T09:43:45.859Z,50.1
2018-05-12T09:48:46.475Z,48.3
2018-05-12T09:53:45.890Z,49.6
2018-05-12T09:58:46.132Z,48.3
2018-05-12T10:03:47.889Z,49
2018-05-12T10:08:47.790Z,48.5
2018-05-12T10:14:00.202Z,48.2
2018-05-12T10:18:59.993Z,48.3
2018-05-12T10:24:00.127Z,46.1
2018-05-12T10:29:00.044Z,45.1
2018-05-12T10:34:00.236Z,45.2
2018-05-12T10:39:00.365Z,48
2018-05-12T10:44:00.144Z,47.4
2018-05-12T10:49:01.405Z,49
2018-05-12T10:54:01.137Z,46.7
2018-05-12T10:59:14.419Z,45.5
2018-05-12T11:04:14.063Z,45.1
2018-05-12T11:09:14.123Z,44.6
2018-05-12T11:14:14.260Z,43.5
2018-05-12T11:19:14.722Z,43.4
2018-05-12T11:24:14.140Z,43.3
2018-05-12T11:29:14.080Z,42.4
2018-05-12T11:34:17.092Z,42.3
2018-05-12T11:39:18.194Z,39.2
2018-05-12T11:44:30.025Z,38.8
2018-05-12T11:49:29.557Z,39.6
2018-05-12T11:54:29.585Z,41.8
2018-05-12T11:59:29.559Z,42.2
2018-05-12T12:04:29.530Z,40.6
2018-05-12T12:09:30.184Z,38.5
2018-05-12T12:14:30.136Z,39.3
2018-05-12T12:19:33.184Z,39.4
2018-05-12T12:24:31.994Z,38.3
2018-05-12T12:29:45.427Z,39.5
2018-05-12T12:34:45.337Z,38.9
2018-05-12T12:39:45.368Z,38.9
2018-05-12T12:44:45.410Z,38.3
2018-05-12T12:49:45.152Z,38.1
2018-05-12T12:54:45.758Z,37.2
2018-05-12T12:59:45.497Z,37.3
2018-05-12T13:04:45.900Z,37.6
2018-05-12T13:09:45.510Z,37.7
2018-05-12T13:14:45.516Z,36.2
2018-05-12T13:19:45.503Z,37.1
2018-05-12T13:24:45.665Z,39.1
2018-05-12T13:29:48.697Z,39.6
2018-05-12T13:34:48.413Z,40.3
2018-05-12T13:39:59.300Z,39.1
2018-05-12T13:44:59.318Z,40.3
2018-05-12T13:49:59.166Z,41
2018-05-12T13:54:59.148Z,41.9
2018-05-12T13:59:59.083Z,41.9
2018-05-12T14:04:59.071Z,42
2018-05-12T14:09:59.065Z,41.5
2018-05-12T14:14:59.076Z,42.5
2018-05-12T14:19:59.085Z,44.3
2018-05-12T14:24:59.353Z,45.2
2018-05-12T14:29:59.089Z,46.4
2018-05-12T14:34:59.262Z,46
2018-05-12T14:39:59.911Z,47.4
2018-05-12T14:44:59.636Z,45.6
2018-05-12T14:50:12.208Z,46.6
2018-05-12T14:55:11.884Z,46.5
2018-05-12T15:00:11.934Z,45.9
2018-05-12T15:05:11.941Z,45.7
2018-05-12T15:10:12.079Z,45.3
2018-05-12T15:15:12.004Z,45.4
2018-05-12T15:20:11.953Z,45.8
2018-05-12T15:25:14.910Z,46.8
2018-05-12T15:30:11.929Z,45.9
2018-05-12T15:35:23.879Z,44.5
2018-05-12T15:40:23.573Z,43.8
2018-05-12T15:45:23.753Z,44.2
2018-05-12T15:50:23.654Z,44.6
2018-05-12T15:55:24.633Z,44.6
2018-05-12T16:00:23.965Z,43.8
2018-05-12T16:05:23.895Z,44.9
2018-05-12T16:10:23.982Z,42.2
2018-05-12T16:15:23.854Z,42.4
2018-05-12T16:20:24.299Z,42.1
2018-05-12T16:25:23.889Z,43.3
2018-05-12T16:30:24.096Z,42.7
2018-05-12T16:35:24.740Z,43.7
2018-05-12T16:40:24.234Z,44.1
2018-05-12T16:45:37.373Z,45.6
2018-05-12T16:50:37.343Z,46.6
2018-05-12T16:55:37.252Z,45.5
2018-05-12T17:00:37.314Z,47.7
2018-05-12T17:05:37.128Z,46.6
2018-05-12T17:10:38.021Z,48
2018-05-12T17:15:37.140Z,48.9
2018-05-12T17:20:38.939Z,48.7
2018-05-12T17:25:38.653Z,49.7
2018-05-12T17:30:50.823Z,49.9
2018-05-12T17:35:50.452Z,49.2
2018-05-12T17:40:50.547Z,49.2
2018-05-12T17:45:50.508Z,50.7
2018-05-12T17:50:50.516Z,51.2
2018-05-12T17:55:50.543Z,52.2
2018-05-12T18:00:50.720Z,51.6
2018-05-12T18:05:52.668Z,53.1
2018-05-12T18:10:50.598Z,54
2018-05-12T18:16:05.563Z,54.3
2018-05-12T18:21:04.057Z,54.4
2018-05-12T18:26:02.917Z,54.4
2018-05-12T18:31:02.684Z,55.8
2018-05-12T18:36:02.915Z,55.8
2018-05-12T18:41:02.795Z,56.9
2018-05-12T18:46:02.796Z,57.8
2018-05-12T18:51:02.867Z,57.6
2018-05-12T18:56:02.737Z,59.5
2018-05-12T19:01:02.711Z,60.3
2018-05-12T19:06:02.671Z,60.9
2018-05-12T19:11:02.707Z,61.6
2018-05-12T19:16:03.874Z,61.8
2018-05-12T19:21:03.473Z,63.1
2018-05-12T19:26:15.967Z,64.2
2018-05-12T19:31:15.673Z,64
2018-05-12T19:36:15.697Z,64.7
2018-05-12T19:41:15.683Z,64.9
2018-05-12T19:46:16.111Z,66.3
2018-05-12T19:51:15.693Z,65.7
2018-05-12T19:56:15.624Z,66.8
2018-05-12T20:01:21.956Z,66.9
2018-05-12T20:06:21.537Z,67
2018-05-12T20:11:32.446Z,68
2018-05-12T20:16:32.217Z,69
2018-05-12T20:21:32.103Z,68.8
2018-05-12T20:26:32.067Z,68
2018-05-12T20:31:32.106Z,69.8
2018-05-12T20:36:32.067Z,71.6
2018-05-12T20:41:32.062Z,72.4
2018-05-12T20:46:32.900Z,70.6
2018-05-12T20:51:32.780Z,71.3
2018-05-12T20:56:45.249Z,70.9
2018-05-12T21:01:44.978Z,70.9
2018-05-12T21:06:45.086Z,72.4
2018-05-12T21:11:44.973Z,73.1
2018-05-12T21:16:45.333Z,72.5
2018-05-12T21:21:44.991Z,72.9
2018-05-12T21:26:45.029Z,72.7
2018-05-12T21:31:47.919Z,72.4
2018-05-12T21:36:47.706Z,74.8
2018-05-12T21:41:57.935Z,75
2018-05-12T21:46:57.696Z,74.7
2018-05-12T21:51:57.654Z,74.8
2018-05-12T21:56:57.670Z,75.2
2018-05-12T22:01:57.664Z,74.9
2018-05-12T22:06:57.696Z,77
2018-05-12T22:11:57.679Z,75.7
2018-05-12T22:16:58.446Z,75.9
2018-05-12T22:21:58.204Z,76
2018-05-12T22:27:10.517Z,76.1
2018-05-12T22:32:10.204Z,77.1
2018-05-12T22:37:10.236Z,76.8
2018-05-12T22:42:10.227Z,76.7
2018-05-12T22:47:10.269Z,78.1
2018-05-12T22:52:10.229Z,77.5
2018-05-12T22:57:10.365Z,77.5
2018-05-12T23:02:10.630Z,77.1
2018-05-12T23:07:10.369Z,77.7
2018-05-12T23:12:22.629Z,78
2018-05-12T23:17:22.341Z,78.6
2018-05-12T23:22:22.371Z,78.5
2018-05-12T23:27:22.586Z,78.7
2018-05-12T23:32:22.374Z,78
2018-05-12T23:37:22.356Z,78.3
2018-05-12T23:42:22.518Z,79.5
2018-05-12T23:47:22.316Z,79.9
2018-05-12T23:52:22.390Z,78.6
2018-05-12T23:57:37.447Z,79.6
